Time;durP1;ratioP1;P1;durP2;ratioP2;P2;SDS_P1;SDS_P2;PMS_P1;PMS_P2;Temp;Humidity;BMP_temperature;BMP_pressure;BME280_temperature;BME280_humidity;BME280_pressure;Samples;Min_cycle;Max_cycle;Signal;HPM_P1;HPM_P2
2021/07/10 00:00:55;;;;;;;36.67;19.20;;;18.10;99.90;;;;;;5093067;28;20205;-82
2021/07/10 00:03:22;;;;;;;35.53;19.47;;;18.00;99.90;;;;;;5093188;28;20230;-82
2021/07/10 00:05:49;;;;;;;39.13;20.63;;;18.10;99.90;;;;;;5093036;28;20396;-82
2021/07/10 00:08:15;;;;;;;33.83;19.63;;;18.00;99.90;;;;;;5093377;28;20289;-82
2021/07/10 00:10:42;;;;;;;39.00;20.70;;;18.00;99.90;;;;;;5093020;28;20222;-82
2021/07/10 00:13:13;;;;;;;36.23;19.63;;;18.10;99.90;;;;;;5093272;28;20234;-82
2021/07/10 00:15:40;;;;;;;38.00;20.57;;;18.00;99.90;;;;;;5093373;28;20199;-83
2021/07/10 00:18:08;;;;;;;39.47;21.20;;;18.00;99.90;;;;;;5093300;28;20191;-82
2021/07/10 00:20:35;;;;;;;41.70;21.63;;;18.10;99.90;;;;;;5093011;28;20294;-82
2021/07/10 00:23:02;;;;;;;45.10;21.13;;;18.10;99.90;;;;;;5094417;28;20219;-82
2021/07/10 00:25:29;;;;;;;35.87;20.27;;;18.20;99.90;;;;;;5097088;28;20218;-82
2021/07/10 00:27:56;;;;;;;39.13;21.73;;;18.10;99.90;;;;;;5096891;28;20297;-82
2021/07/10 00:30:24;;;;;;;40.30;20.73;;;18.10;99.90;;;;;;5097110;28;20231;-83
2021/07/10 00:32:51;;;;;;;39.43;21.30;;;18.00;99.90;;;;;;5096857;28;20197;-83
2021/07/10 00:35:20;;;;;;;41.70;20.90;;;18.00;99.90;;;;;;5096895;28;20227;-82
2021/07/10 00:37:47;;;;;;;37.50;20.40;;;17.90;99.90;;;;;;5096871;28;20201;-82
2021/07/10 00:40:18;;;;;;;40.80;20.37;;;17.80;99.90;;;;;;5096753;28;20227;-81
2021/07/10 00:42:46;;;;;;;40.77;21.27;;;17.70;99.90;;;;;;5096720;28;20286;-82
2021/07/10 00:45:14;;;;;;;40.97;21.10;;;17.70;99.90;;;;;;5096481;28;20223;-82
2021/07/10 00:47:41;;;;;;;40.40;20.57;;;17.80;99.90;;;;;;5096780;28;20201;-82
2021/07/10 00:50:14;;;;;;;38.80;20.43;;;17.80;99.90;;;;;;5096572;28;20289;-82
2021/07/10 00:52:42;;;;;;;39.43;20.50;;;17.80;99.90;;;;;;5096324;28;20216;-82
2021/07/10 00:55:10;;;;;;;37.17;21.07;;;17.70;99.90;;;;;;5096376;28;20282;-82
2021/07/10 00:57:38;;;;;;;36.53;19.73;;;17.60;99.90;;;;;;5096228;28;20202;-82
2021/07/10 01:00:08;;;;;;;40.57;20.70;;;17.50;99.90;;;;;;5096207;28;20191;-82
2021/07/10 01:02:35;;;;;;;38.53;21.80;;;17.60;99.90;;;;;;5096431;28;20203;-82
2021/07/10 01:05:08;;;;;;;38.30;20.63;;;17.60;99.90;;;;;;5095898;28;20223;-84
2021/07/10 01:07:35;;;;;;;42.03;22.07;;;17.50;99.90;;;;;;5096394;28;20290;-83
2021/07/10 01:10:03;;;;;;;48.03;23.93;;;17.40;99.90;;;;;;5096066;28;20309;-82
2021/07/10 01:12:33;;;;;;;48.10;23.60;;;17.40;99.90;;;;;;5095813;28;20286;-82
2021/07/10 01:15:00;;;;;;;45.20;22.40;;;17.40;99.90;;;;;;5096084;28;20282;-82
2021/07/10 01:17:27;;;;;;;44.20;21.57;;;17.40;99.90;;;;;;5095833;28;20289;-82
2021/07/10 01:20:05;;;;;;;46.87;23.03;;;17.30;99.90;;;;;;5095955;28;20195;-82
2021/07/10 01:22:34;;;;;;;43.47;22.27;;;17.40;99.90;;;;;;5095744;28;20294;-81
2021/07/10 01:25:01;;;;;;;43.33;22.83;;;17.40;99.90;;;;;;5095749;28;20251;-82
2021/07/10 01:27:28;;;;;;;46.00;23.93;;;17.30;99.90;;;;;;5095815;28;20297;-82
2021/07/10 01:29:57;;;;;;;44.13;22.50;;;17.30;99.90;;;;;;5095753;28;20230;-82
2021/07/10 01:32:25;;;;;;;42.27;21.43;;;17.40;99.90;;;;;;5095917;28;20199;-82
2021/07/10 01:34:52;;;;;;;43.60;22.27;;;17.50;99.90;;;;;;5095165;28;20230;-82
2021/07/10 01:37:19;;;;;;;41.50;21.93;;;17.60;99.90;;;;;;5095702;28;20256;-82
2021/07/10 01:39:47;;;;;;;43.37;22.80;;;17.60;99.90;;;;;;5095585;28;20290;-82
2021/07/10 01:42:19;;;;;;;45.97;22.53;;;17.50;99.90;;;;;;5095408;28;20237;-82
2021/07/10 01:44:47;;;;;;;41.27;21.23;;;17.50;99.90;;;;;;5095621;28;20221;-82
2021/07/10 01:47:17;;;;;;;35.83;20.33;;;17.30;99.90;;;;;;5095462;28;20233;-82
2021/07/10 01:49:44;;;;;;;36.07;20.33;;;17.40;99.90;;;;;;5095175;28;20197;-82
2021/07/10 01:52:12;;;;;;;31.77;19.67;;;17.40;99.90;;;;;;5095103;28;20234;-82
2021/07/10 01:54:39;;;;;;;33.77;19.50;;;17.40;99.90;;;;;;5095447;28;20278;-81
2021/07/10 01:57:09;;;;;;;36.33;20.30;;;17.30;99.90;;;;;;5095442;28;20234;-82
2021/07/10 01:59:36;;;;;;;30.67;18.97;;;17.40;99.90;;;;;;5094892;28;20202;-81
2021/07/10 02:02:05;;;;;;;36.80;19.43;;;17.30;99.90;;;;;;5095089;28;20294;-82
2021/07/10 02:04:43;;;;;;;38.57;19.80;;;17.20;99.90;;;;;;5094837;28;20238;-82
2021/07/10 02:07:10;;;;;;;37.87;19.50;;;17.20;99.90;;;;;;5095131;28;20262;-82
2021/07/10 02:09:37;;;;;;;35.60;19.33;;;16.90;99.90;;;;;;5094927;28;20230;-82
2021/07/10 02:12:05;;;;;;;42.87;21.10;;;17.00;99.90;;;;;;5094879;28;20634;-82
2021/07/10 02:14:33;;;;;;;40.67;21.60;;;17.10;99.90;;;;;;5094862;28;20633;-82
2021/07/10 02:17:00;;;;;;;43.70;21.77;;;17.10;99.90;;;;;;5094556;28;20195;-83
2021/07/10 02:19:28;;;;;;;41.37;22.30;;;16.90;99.90;;;;;;5094910;28;20199;-82
2021/07/10 02:21:54;;;;;;;43.43;23.33;;;16.90;99.90;;;;;;5094847;28;20289;-81
2021/07/10 02:24:21;;;;;;;37.43;20.30;;;16.90;99.90;;;;;;5094546;28;20286;-82
2021/07/10 02:26:48;;;;;;;43.97;22.30;;;16.80;99.90;;;;;;5094520;28;20266;-82
2021/07/10 02:29:15;;;;;;;43.20;21.53;;;16.70;99.90;;;;;;5094792;28;20219;-84
2021/07/10 02:31:44;;;;;;;40.90;21.90;;;16.60;99.90;;;;;;5094434;28;20191;-82
2021/07/10 02:34:11;;;;;;;46.50;23.07;;;16.50;99.90;;;;;;5094860;28;20194;-82
2021/07/10 02:36:37;;;;;;;45.07;23.57;;;16.50;99.90;;;;;;5094399;28;20230;-84
2021/07/10 02:39:05;;;;;;;48.87;24.93;;;16.50;99.90;;;;;;5094776;28;20286;-81
2021/07/10 02:41:38;;;;;;;52.47;25.13;;;16.60;99.90;;;;;;5094560;28;20194;-81
2021/07/10 02:44:06;;;;;;;48.57;24.23;;;16.60;99.90;;;;;;5094239;28;20205;-82
2021/07/10 02:46:33;;;;;;;57.50;26.80;;;16.50;99.90;;;;;;5093190;28;20230;-81
2021/07/10 02:49:02;;;;;;;50.63;25.37;;;16.50;99.90;;;;;;5094170;28;20202;-81
2021/07/10 02:51:29;;;;;;;47.17;24.97;;;16.50;99.90;;;;;;5094135;28;20198;-81
2021/07/10 02:53:57;;;;;;;46.63;24.40;;;16.50;99.90;;;;;;5094031;28;20202;-82
2021/07/10 02:56:25;;;;;;;44.23;23.37;;;16.40;99.90;;;;;;5094244;28;20631;-82
2021/07/10 02:58:53;;;;;;;38.93;21.17;;;16.40;99.90;;;;;;5093742;28;20237;-82
2021/07/10 03:01:20;;;;;;;38.67;22.03;;;16.40;99.90;;;;;;5094192;28;20199;-82
2021/07/10 03:03:47;;;;;;;37.97;21.03;;;16.50;99.90;;;;;;5093708;28;20299;-82
2021/07/10 03:06:16;;;;;;;37.50;20.93;;;16.50;99.90;;;;;;5093936;28;20281;-81
2021/07/10 03:08:44;;;;;;;38.87;21.10;;;16.50;99.90;;;;;;5093942;28;20221;-82
2021/07/10 03:11:12;;;;;;;38.33;19.80;;;16.50;99.90;;;;;;5093667;28;20195;-81
2021/07/10 03:13:39;;;;;;;35.20;19.93;;;16.50;99.90;;;;;;5093945;28;20301;-81
2021/07/10 03:16:06;;;;;;;32.73;19.50;;;16.40;99.90;;;;;;5093827;28;20221;-81
2021/07/10 03:18:33;;;;;;;33.60;18.83;;;16.40;99.90;;;;;;5093754;28;20201;-81
2021/07/10 03:21:00;;;;;;;43.50;21.90;;;16.40;99.90;;;;;;5093430;28;20632;-81
2021/07/10 03:23:29;;;;;;;44.33;22.70;;;16.50;99.90;;;;;;5093546;28;20290;-81
2021/07/10 03:25:55;;;;;;;33.03;19.83;;;16.60;99.90;;;;;;5093331;28;20420;-81
2021/07/10 03:28:22;;;;;;;36.30;20.83;;;16.40;99.90;;;;;;5093552;28;20291;-81
2021/07/10 03:30:52;;;;;;;36.47;21.10;;;16.40;99.90;;;;;;5093274;28;20286;-80
2021/07/10 03:33:19;;;;;;;38.60;21.97;;;16.40;99.90;;;;;;5093306;28;20698;-81
2021/07/10 03:35:46;;;;;;;42.47;22.10;;;16.50;99.90;;;;;;5093515;28;20554;-81
2021/07/10 03:38:13;;;;;;;36.53;21.63;;;16.60;99.90;;;;;;5093441;28;20682;-81
2021/07/10 03:40:45;;;;;;;37.17;21.40;;;16.70;99.90;;;;;;5093676;28;20625;-81
2021/07/10 03:43:15;;;;;;;38.57;21.43;;;16.80;99.90;;;;;;5093460;28;20336;-81
2021/07/10 03:45:42;;;;;;;35.67;20.50;;;16.90;99.90;;;;;;5093236;28;20602;-81
2021/07/10 03:48:09;;;;;;;39.63;21.00;;;16.80;99.90;;;;;;5092342;28;20570;-81
2021/07/10 03:50:36;;;;;;;32.30;19.97;;;16.90;99.90;;;;;;5093133;28;20239;-81
2021/07/10 03:53:04;;;;;;;42.73;20.93;;;16.90;99.90;;;;;;5092876;28;20205;-81
2021/07/10 03:55:32;;;;;;;36.00;20.57;;;16.90;99.90;;;;;;5093163;28;20195;-81
2021/07/10 03:58:02;;;;;;;39.33;20.47;;;16.90;99.90;;;;;;5096101;28;20564;-81
2021/07/10 04:00:29;;;;;;;32.60;19.50;;;16.80;99.90;;;;;;5099912;28;20210;-81
2021/07/10 04:02:56;;;;;;;31.23;18.87;;;16.90;99.90;;;;;;5099616;28;20285;-81
2021/07/10 04:05:23;;;;;;;29.13;18.63;;;16.90;99.90;;;;;;5099637;28;20300;-81
2021/07/10 04:07:50;;;;;;;26.20;18.10;;;17.00;99.90;;;;;;5099596;28;20314;-81
2021/07/10 04:10:17;;;;;;;27.03;17.17;;;16.90;99.90;;;;;;5100180;28;20285;-81
2021/07/10 04:12:45;;;;;;;31.33;18.83;;;16.90;99.90;;;;;;5099829;28;20726;-81
2021/07/10 04:15:16;;;;;;;29.70;18.80;;;16.90;99.90;;;;;;5099517;28;20195;-81
2021/07/10 04:17:43;;;;;;;28.47;18.37;;;16.90;99.90;;;;;;5099742;28;20201;-81
2021/07/10 04:20:11;;;;;;;28.17;17.77;;;16.90;99.90;;;;;;5099422;28;20190;-81
2021/07/10 04:22:39;;;;;;;29.93;18.30;;;17.10;99.90;;;;;;5099619;28;20209;-81
2021/07/10 04:25:08;;;;;;;33.20;17.73;;;17.10;99.90;;;;;;5099745;28;20243;-81
2021/07/10 04:27:38;;;;;;;26.13;17.33;;;17.30;99.90;;;;;;5099455;28;20226;-81
2021/07/10 04:30:07;;;;;;;25.40;17.03;;;17.40;99.90;;;;;;5099512;28;20194;-81
2021/07/10 04:32:36;;;;;;;28.70;16.53;;;17.40;99.90;;;;;;5099500;28;20555;-82
2021/07/10 04:35:03;;;;;;;27.53;16.97;;;17.60;99.90;;;;;;5099640;28;20222;-81
2021/07/10 04:37:30;;;;;;;31.37;16.63;;;17.70;99.90;;;;;;5099597;28;20289;-81
2021/07/10 04:39:57;;;;;;;27.77;16.83;;;17.80;99.90;;;;;;5099650;28;20277;-81
2021/07/10 04:42:25;;;;;;;24.73;16.93;;;17.70;99.90;;;;;;5099510;28;20318;-81
2021/07/10 04:44:53;;;;;;;27.03;15.87;;;17.80;99.90;;;;;;5099458;28;20190;-81
2021/07/10 04:47:21;;;;;;;24.40;16.07;;;17.90;99.90;;;;;;5099304;28;20222;-81
2021/07/10 04:49:49;;;;;;;25.13;16.77;;;17.70;99.90;;;;;;5099389;28;20199;-81
2021/07/10 04:52:16;;;;;;;25.47;16.80;;;17.70;99.90;;;;;;5099625;28;20293;-81
2021/07/10 04:54:43;;;;;;;29.43;17.03;;;17.70;99.90;;;;;;5099460;28;20284;-82
2021/07/10 04:57:10;;;;;;;25.50;16.67;;;17.80;99.90;;;;;;5099707;28;20198;-81
2021/07/10 04:59:37;;;;;;;26.37;16.40;;;17.90;99.90;;;;;;5099402;28;20290;-81
2021/07/10 05:02:04;;;;;;;29.23;17.07;;;18.10;99.90;;;;;;5099409;28;20226;-81
2021/07/10 05:04:35;;;;;;;29.37;17.53;;;18.10;99.90;;;;;;5099378;28;20282;-82
2021/07/10 05:07:03;;;;;;;23.33;16.17;;;18.30;99.90;;;;;;5099160;28;20305;-81
2021/07/10 05:09:30;;;;;;;27.90;16.80;;;18.30;99.90;;;;;;5096810;28;20201;-81
2021/07/10 05:11:57;;;;;;;25.80;16.77;;;18.30;99.90;;;;;;5095920;28;20201;-81
2021/07/10 05:14:24;;;;;;;24.30;15.93;;;18.50;99.90;;;;;;5095883;28;20289;-81
2021/07/10 05:16:51;;;;;;;27.83;16.63;;;18.50;99.90;;;;;;5095993;28;20289;-81
2021/07/10 05:19:18;;;;;;;25.27;16.37;;;18.50;99.90;;;;;;5095871;28;20233;-81
2021/07/10 05:21:45;;;;;;;23.77;16.33;;;18.60;99.90;;;;;;5096009;28;20290;-81
2021/07/10 05:24:13;;;;;;;23.27;15.73;;;18.60;99.90;;;;;;5095721;28;20206;-81
2021/07/10 05:26:40;;;;;;;22.50;16.17;;;18.70;99.90;;;;;;5095390;28;20672;-81
2021/07/10 05:29:07;;;;;;;24.47;15.37;;;19.00;99.90;;;;;;5095490;28;20631;-81
2021/07/10 05:31:36;;;;;;;23.47;15.73;;;19.10;99.90;;;;;;5095662;28;20306;-81
2021/07/10 05:34:03;;;;;;;25.87;17.00;;;19.20;99.90;;;;;;5095543;28;20230;-81
2021/07/10 05:36:30;;;;;;;22.07;15.70;;;19.30;99.90;;;;;;5095604;28;20203;-81
2021/07/10 05:38:57;;;;;;;26.70;17.17;;;19.50;99.90;;;;;;5095385;28;20209;-81
2021/07/10 05:41:26;;;;;;;29.50;16.57;;;19.60;99.90;;;;;;5095500;28;20278;-81
2021/07/10 05:43:53;;;;;;;25.10;15.80;;;19.70;99.90;;;;;;5095579;28;20209;-81
2021/07/10 05:46:20;;;;;;;23.23;16.10;;;19.80;99.90;;;;;;5095179;28;20237;-81
2021/07/10 05:48:46;;;;;;;24.07;15.97;;;19.90;99.90;;;;;;5095422;28;20387;-81
2021/07/10 05:51:13;;;;;;;23.13;16.67;;;20.00;99.90;;;;;;5095236;28;20195;-82
2021/07/10 05:53:40;;;;;;;21.83;15.73;;;20.10;99.90;;;;;;5095103;28;20223;-81
2021/07/10 05:56:07;;;;;;;25.37;15.97;;;20.20;99.90;;;;;;5095100;28;20276;-81
2021/07/10 05:58:35;;;;;;;25.93;16.03;;;20.40;99.90;;;;;;5095164;28;20221;-82
2021/07/10 06:01:02;;;;;;;23.27;15.53;;;20.50;99.90;;;;;;5095324;28;20206;-82
2021/07/10 06:03:29;;;;;;;22.40;15.90;;;20.70;99.90;;;;;;5095051;28;20683;-82
2021/07/10 06:05:56;;;;;;;23.70;15.83;;;20.90;99.90;;;;;;5095009;28;20227;-82
2021/07/10 06:08:23;;;;;;;21.52;16.15;;;21.10;99.90;;;;;;5094819;28;20266;-82
2021/07/10 06:10:50;;;;;;;23.33;15.60;;;21.30;99.90;;;;;;5095187;28;20191;-81
2021/07/10 06:13:17;;;;;;;25.40;15.45;;;21.40;99.90;;;;;;5094933;28;20310;-81
2021/07/10 06:15:45;;;;;;;25.48;16.58;;;21.60;99.90;;;;;;5094689;28;20203;-82
2021/07/10 06:18:12;;;;;;;23.30;15.43;;;21.60;99.90;;;;;;5094851;28;20197;-81
2021/07/10 06:20:39;;;;;;;21.67;15.48;;;21.70;99.90;;;;;;5094515;28;20289;-82
2021/07/10 06:23:07;;;;;;;25.77;16.55;;;21.80;99.90;;;;;;5094697;28;20281;-81
2021/07/10 06:25:36;;;;;;;24.25;15.68;;;22.00;99.90;;;;;;5094734;28;20198;-82
2021/07/10 06:28:05;;;;;;;21.27;15.40;;;22.10;99.90;;;;;;5094514;28;20254;-82
2021/07/10 06:30:32;;;;;;;23.38;16.13;;;22.30;99.90;;;;;;5094625;28;20285;-81
2021/07/10 06:33:01;;;;;;;23.50;15.25;;;22.50;99.90;;;;;;5094737;28;20198;-82
2021/07/10 06:35:30;;;;;;;22.90;15.30;;;22.60;99.90;;;;;;5094375;28;20294;-82
2021/07/10 06:37:57;;;;;;;18.50;14.45;;;22.70;99.90;;;;;;5094485;28;20199;-81
2021/07/10 06:40:25;;;;;;;17.67;14.20;;;22.80;99.90;;;;;;5094744;28;20281;-82
2021/07/10 06:42:52;;;;;;;23.48;14.88;;;22.90;99.90;;;;;;5094428;28;20202;-82
2021/07/10 06:45:21;;;;;;;18.30;14.40;;;23.10;99.90;;;;;;5094342;28;20282;-82
2021/07/10 06:47:49;;;;;;;21.33;14.80;;;23.30;99.90;;;;;;5094370;28;20313;-82
2021/07/10 06:50:20;;;;;;;20.33;14.05;;;23.50;99.90;;;;;;5094379;28;20289;-82
2021/07/10 06:52:48;;;;;;;20.42;15.23;;;23.60;99.90;;;;;;5094560;28;20281;-82
2021/07/10 06:55:16;;;;;;;21.33;14.35;;;23.30;99.90;;;;;;5094559;28;20195;-82
2021/07/10 06:57:43;;;;;;;21.02;15.10;;;23.40;99.90;;;;;;5094113;28;20277;-82
2021/07/10 07:00:13;;;;;;;23.23;15.48;;;23.30;99.90;;;;;;5093938;28;20206;-82
2021/07/10 07:02:39;;;;;;;21.52;14.50;;;23.40;99.90;;;;;;5094003;28;20638;-82
2021/07/10 07:05:08;;;;;;;20.15;14.30;;;23.60;99.90;;;;;;5094140;28;20283;-82
2021/07/10 07:07:37;;;;;;;21.27;15.00;;;23.80;99.90;;;;;;5093910;28;20229;-82
2021/07/10 07:10:06;;;;;;;22.25;14.73;;;24.00;99.90;;;;;;5093882;28;20559;-82
2021/07/10 07:12:33;;;;;;;20.00;14.60;;;24.20;99.90;;;;;;5093779;28;20245;-82
2021/07/10 07:15:00;;;;;;;22.35;13.57;;;24.30;99.90;;;;;;5093620;28;20656;-82
2021/07/10 07:17:27;;;;;;;22.80;15.82;;;24.30;99.90;;;;;;5093592;28;20202;-82
2021/07/10 07:19:54;;;;;;;19.45;15.63;;;24.00;99.90;;;;;;5093993;28;20289;-82
2021/07/10 07:22:20;;;;;;;20.88;15.93;;;23.10;99.90;;;;;;5093730;28;20197;-82
2021/07/10 07:24:49;;;;;;;18.02;14.98;;;22.60;99.90;;;;;;5093379;28;20234;-83
2021/07/10 07:27:16;;;;;;;22.23;15.63;;;22.70;99.90;;;;;;5092766;28;20313;-82
2021/07/10 07:29:43;;;;;;;20.65;15.48;;;22.90;99.90;;;;;;5093382;28;20294;-82
2021/07/10 07:32:09;;;;;;;21.83;15.75;;;23.30;99.90;;;;;;5092806;28;20727;-85
2021/07/10 07:34:37;;;;;;;25.90;15.70;;;24.10;99.90;;;;;;5093171;28;20293;-83
2021/07/10 07:37:04;;;;;;;24.30;15.43;;;24.80;99.90;;;;;;5093844;28;20294;-83
2021/07/10 07:39:31;;;;;;;20.30;14.85;;;25.70;99.90;;;;;;5093828;28;20281;-83
2021/07/10 07:41:59;;;;;;;18.25;14.10;;;25.90;99.90;;;;;;5093887;28;20290;-82
2021/07/10 07:44:26;;;;;;;20.42;14.10;;;26.20;99.90;;;;;;5093533;28;20611;-83
2021/07/10 07:46:53;;;;;;;21.90;13.43;;;26.90;99.90;;;;;;5093498;28;20249;-83
2021/07/10 07:49:20;;;;;;;16.50;12.70;;;27.70;99.90;;;;;;5093349;28;20557;-83
2021/07/10 07:51:47;;;;;;;16.83;12.98;;;27.90;99.90;;;;;;5093217;28;20635;-83
2021/07/10 07:54:14;;;;;;;17.17;13.02;;;28.40;99.90;;;;;;5093637;28;20285;-83
2021/07/10 07:56:41;;;;;;;18.05;11.98;;;28.50;99.90;;;;;;5093049;28;20742;-83
2021/07/10 07:59:09;;;;;;;23.92;13.35;;;28.40;99.90;;;;;;5093204;28;20298;-83
2021/07/10 08:01:36;;;;;;;17.00;12.13;;;27.70;99.90;;;;;;5093254;28;20202;-83
2021/07/10 08:04:03;;;;;;;17.02;12.77;;;27.50;99.90;;;;;;5093052;28;20294;-83
2021/07/10 08:06:30;;;;;;;20.08;14.32;;;27.70;99.90;;;;;;5093111;28;20204;-83
2021/07/10 08:08:57;;;;;;;18.92;14.73;;;27.60;99.90;;;;;;5093033;28;20760;-83
2021/07/10 08:11:23;;;;;;;17.80;13.52;;;26.80;99.90;;;;;;5092809;28;20281;-83
2021/07/10 08:13:50;;;;;;;20.00;14.65;;;26.70;99.90;;;;;;5093217;28;20270;-83
2021/07/10 08:16:19;;;;;;;20.98;14.02;;;26.50;99.90;;;;;;5093253;28;20290;-83
2021/07/10 08:18:46;;;;;;;21.50;14.65;;;26.90;99.90;;;;;;5093237;28;20627;-82
2021/07/10 08:21:13;;;;;;;16.27;13.02;;;27.10;99.90;;;;;;5093044;28;20233;-83
2021/07/10 08:23:40;;;;;;;20.27;14.65;;;27.50;99.90;;;;;;5092987;28;20241;-82
2021/07/10 08:26:07;;;;;;;16.08;13.05;;;28.40;99.90;;;;;;5092573;28;20231;-83
2021/07/10 08:28:34;;;;;;;14.27;12.80;;;28.50;99.90;;;;;;5092674;28;20658;-82
2021/07/10 08:31:04;;;;;;;19.90;14.70;;;28.40;99.90;;;;;;5093172;28;20285;-82
2021/07/10 08:33:33;;;;;;;16.65;12.10;;;28.30;99.90;;;;;;5092924;28;20638;-83
2021/07/10 08:36:00;;;;;;;14.40;10.70;;;28.20;99.90;;;;;;5092760;28;20238;-82
2021/07/10 08:38:27;;;;;;;11.35;9.60;;;27.90;99.90;;;;;;5092682;28;20281;-82
2021/07/10 08:40:55;;;;;;;17.20;10.27;;;29.10;99.90;;;;;;5092792;28;20197;-82
2021/07/10 08:43:22;;;;;;;21.85;9.43;;;29.40;99.90;;;;;;5092887;28;20203;-82
2021/07/10 08:45:50;;;;;;;11.60;8.93;;;29.40;99.90;;;;;;5095224;28;20741;-83
2021/07/10 08:48:18;;;;;;;10.90;8.57;;;28.70;99.90;;;;;;5096434;28;20763;-83
2021/07/10 08:50:46;;;;;;;11.45;8.55;;;28.90;99.90;;;;;;5096345;28;20548;-83
2021/07/10 08:53:17;;;;;;;15.50;9.10;;;29.20;99.90;;;;;;5096166;28;20220;-83
2021/07/10 08:55:43;;;;;;;13.50;8.52;;;29.00;99.90;;;;;;5096849;28;20635;-83
2021/07/10 08:58:10;;;;;;;10.82;7.95;;;28.60;99.90;;;;;;5096102;28;20191;-83
2021/07/10 09:00:41;;;;;;;11.50;8.43;;;29.80;99.90;;;;;;5096373;28;20215;-83
2021/07/10 09:03:10;;;;;;;11.63;7.68;;;30.60;99.90;;;;;;5096466;28;20213;-82
2021/07/10 09:05:37;;;;;;;13.77;7.95;;;30.30;99.90;;;;;;5096165;28;20289;-83
2021/07/10 09:08:27;;;;;;;16.25;7.95;;;29.70;99.90;;;;;;5096422;28;20325;-82
2021/07/10 09:10:59;;;;;;;11.10;7.20;;;29.40;99.90;;;;;;5091648;28;20234;-82
2021/07/10 09:13:38;;;;;;;9.15;6.80;;;29.10;99.90;;;;;;5096371;28;20290;-83
2021/07/10 09:16:08;;;;;;;11.68;6.03;;;28.90;99.90;;;;;;5096097;28;20195;-83
2021/07/10 09:18:38;;;;;;;10.23;6.18;;;29.70;99.90;;;;;;5096118;28;20245;-83
2021/07/10 09:21:05;;;;;;;8.63;5.68;;;31.10;99.90;;;;;;5096133;28;20298;-83
2021/07/10 09:23:38;;;;;;;9.75;5.88;;;32.20;99.90;;;;;;5095892;28;20290;-83
2021/07/10 09:26:20;;;;;;;9.40;5.95;;;32.40;99.90;;;;;;5095669;28;20194;-83
2021/07/10 09:29:06;;;;;;;6.75;5.60;;;31.30;99.90;;;;;;5096100;28;20268;-83
2021/07/10 09:31:36;;;;;;;8.80;6.32;;;30.30;99.90;;;;;;5096051;28;20205;-83
2021/07/10 09:34:10;;;;;;;8.88;6.35;;;29.40;99.90;;;;;;5099369;28;20195;-83
2021/07/10 09:36:37;;;;;;;11.73;6.57;;;28.90;99.90;;;;;;5095718;28;20226;-83
2021/07/10 09:39:12;;;;;;;9.07;6.03;;;28.60;99.90;;;;;;5095330;28;20281;-83
2021/07/10 09:41:39;;;;;;;8.82;5.95;;;28.10;99.90;;;;;;5095973;28;20195;-83
2021/07/10 09:44:12;;;;;;;8.75;5.57;;;27.90;99.90;;;;;;5097990;28;20286;-83
2021/07/10 09:46:40;;;;;;;7.75;5.70;;;28.00;99.90;;;;;;5095741;28;20203;-83
2021/07/10 09:49:29;;;;;;;6.97;5.43;;;28.40;99.90;;;;;;5095612;28;20758;-83
2021/07/10 09:52:05;;;;;;;6.85;5.38;;;29.20;99.90;;;;;;5095311;28;20192;-83
2021/07/10 09:54:34;;;;;;;6.70;5.10;;;30.00;99.90;;;;;;5095593;28;20233;-83
2021/07/10 09:57:05;;;;;;;8.05;4.82;;;29.80;99.90;;;;;;5094882;28;20690;-83
2021/07/10 09:59:36;;;;;;;8.30;5.15;;;29.80;99.90;;;;;;5095332;28;20203;-83
2021/07/10 10:02:10;;;;;;;6.60;4.90;;;29.30;99.90;;;;;;5095414;28;20562;-83
2021/07/10 10:04:37;;;;;;;10.48;5.50;;;28.60;99.90;;;;;;5095557;28;20198;-83
2021/07/10 10:07:10;;;;;;;5.95;4.75;;;27.60;99.90;;;;;;5095220;28;20670;-82
2021/07/10 10:09:39;;;;;;;5.35;4.22;;;27.00;99.90;;;;;;5095253;28;20237;-83
2021/07/10 10:12:09;;;;;;;7.80;4.38;;;26.60;99.90;;;;;;5095117;28;20723;-80
2021/07/10 10:14:41;;;;;;;7.15;4.70;;;25.80;99.90;;;;;;5085702;28;20199;-83
2021/07/10 10:17:09;;;;;;;7.60;4.75;;;26.00;99.90;;;;;;5077823;28;20207;-83
2021/07/10 10:19:37;;;;;;;6.13;4.88;;;26.50;99.90;;;;;;5088559;28;20227;-84
2021/07/10 10:22:07;;;;;;;6.63;4.70;;;26.20;99.90;;;;;;5103028;28;20187;-82
2021/07/10 10:24:35;;;;;;;8.55;4.43;;;26.30;99.90;;;;;;5084140;28;20671;-83
2021/07/10 10:27:04;;;;;;;7.55;3.97;;;26.50;99.90;;;;;;5093797;28;20217;-82
2021/07/10 10:29:31;;;;;;;5.38;3.90;;;27.50;99.90;;;;;;5095440;28;20219;-83
2021/07/10 10:31:59;;;;;;;4.28;3.88;;;27.90;99.90;;;;;;5103422;28;20286;-83
2021/07/10 10:34:27;;;;;;;6.20;3.97;;;28.70;99.90;;;;;;5086651;28;20245;-84
2021/07/10 10:36:56;;;;;;;5.70;4.40;;;29.10;99.90;;;;;;5089773;28;20222;-83
2021/07/10 10:39:25;;;;;;;5.25;3.97;;;29.50;99.90;;;;;;5094714;28;20222;-84
2021/07/10 10:41:56;;;;;;;4.40;3.97;;;29.30;99.90;;;;;;5097491;28;20194;-84
2021/07/10 10:44:25;;;;;;;5.47;3.88;;;30.10;99.90;;;;;;5102568;28;20249;-84
2021/07/10 10:46:55;;;;;;;6.15;4.20;;;30.50;99.90;;;;;;5089576;28;20231;-83
2021/07/10 10:49:43;;;;;;;6.93;3.83;;;30.70;99.90;;;;;;5089099;28;20211;-84
2021/07/10 10:52:26;;;;;;;5.50;4.18;;;30.50;99.90;;;;;;5092000;28;20230;-83
2021/07/10 10:54:55;;;;;;;6.05;3.90;;;29.90;99.90;;;;;;5082670;28;20318;-83
2021/07/10 10:57:41;;;;;;;4.13;3.67;;;28.60;99.90;;;;;;5091389;28;20195;-83
2021/07/10 11:00:17;;;;;;;6.85;3.70;;;28.20;99.90;;;;;;5098886;28;20260;-84
2021/07/10 11:02:56;;;;;;;4.95;4.03;;;28.20;99.90;;;;;;5094967;28;20208;-85
2021/07/10 11:05:44;;;;;;;6.38;3.50;;;27.90;99.90;;;;;;5094263;28;20234;-84
2021/07/10 11:08:30;;;;;;;5.10;4.03;;;28.00;99.90;;;;;;5088234;28;20262;-84
2021/07/10 11:11:37;;;;;;;6.22;3.97;;;27.90;99.90;;;;;;5084330;28;20674;-83
2021/07/10 11:14:15;;;;;;;6.32;3.58;;;27.90;99.90;;;;;;5075235;28;20195;-84
2021/07/10 11:17:08;;;;;;;6.00;3.78;;;27.10;99.90;;;;;;5090011;28;20283;-84
2021/07/10 11:19:53;;;;;;;9.50;4.03;;;26.90;99.90;;;;;;5093366;28;20230;-83
2021/07/10 11:23:01;;;;;;;6.40;3.70;;;27.40;99.90;;;;;;5091998;28;20205;-84
2021/07/10 11:26:14;;;;;;;7.13;3.95;;;27.10;99.90;;;;;;5096653;28;20553;-82
2021/07/10 11:28:52;;;;;;;8.57;6.32;;;27.40;99.90;;;;;;5094301;28;20211;-83
2021/07/10 11:31:21;;;;;;;6.13;4.85;;;27.60;99.90;;;;;;5086152;28;20686;-84
2021/07/10 11:34:09;;;;;;;4.15;3.35;;;27.90;99.90;;;;;;5084011;28;20191;-83
2021/07/10 11:36:55;;;;;;;4.40;3.63;;;27.90;99.90;;;;;;5107676;28;20283;-84
2021/07/10 11:39:40;;;;;;;5.50;3.35;;;27.80;99.90;;;;;;5100178;28;20233;-86
2021/07/10 11:42:41;;;;;;;5.47;3.30;;;27.10;99.90;;;;;;5100226;28;20194;-84
2021/07/10 11:45:36;;;;;;;5.18;3.88;;;27.30;99.90;;;;;;5104966;28;20195;-85
2021/07/10 11:48:28;;;;;;;6.20;3.45;;;27.00;99.90;;;;;;5092691;28;20640;-84
2021/07/10 11:51:10;;;;;;;7.15;4.07;;;27.00;99.90;;;;;;5093628;28;20282;-84
2021/07/10 11:53:37;;;;;;;5.80;4.28;;;26.70;99.90;;;;;;5101261;28;20193;-84
2021/07/10 11:56:05;;;;;;;5.70;3.75;;;26.40;99.90;;;;;;5093713;28;20191;-84
2021/07/10 11:58:33;;;;;;;6.10;4.55;;;26.20;99.90;;;;;;5081676;28;20290;-85
2021/07/10 12:01:01;;;;;;;6.18;4.63;;;25.80;99.90;;;;;;5097674;28;20199;-84
2021/07/10 12:03:29;;;;;;;4.47;3.92;;;25.60;99.90;;;;;;5096213;28;20219;-82
2021/07/10 12:05:57;;;;;;;5.80;4.63;;;25.60;99.90;;;;;;5101538;28;20190;-84
2021/07/10 12:08:29;;;;;;;5.05;4.55;;;25.40;99.90;;;;;;5091802;28;20660;-84
2021/07/10 12:10:56;;;;;;;8.93;4.93;;;25.30;99.90;;;;;;5092972;28;20222;-84
2021/07/10 12:13:28;;;;;;;6.10;4.82;;;25.30;99.90;;;;;;5086044;28;20196;-83
2021/07/10 12:15:56;;;;;;;9.15;5.20;;;25.20;99.90;;;;;;5072884;28;20203;-83
2021/07/10 12:18:25;;;;;;;5.38;4.35;;;24.20;99.90;;;;;;5073382;28;20195;-83
2021/07/10 12:20:55;;;;;;;9.35;4.88;;;24.10;99.90;;;;;;5076915;28;20290;-83
2021/07/10 12:23:24;;;;;;;5.18;4.57;;;23.90;99.90;;;;;;5078273;28;20298;-82
2021/07/10 12:25:58;;;;;;;6.97;4.45;;;24.10;99.90;;;;;;5096609;28;20285;-84
2021/07/10 12:28:36;;;;;;;8.45;4.85;;;24.20;99.90;;;;;;5096320;28;20301;-84
2021/07/10 12:31:05;;;;;;;10.13;4.57;;;24.30;99.90;;;;;;5096757;28;20226;-84
2021/07/10 12:33:42;;;;;;;5.18;4.53;;;24.70;99.90;;;;;;5096935;28;20285;-84
2021/07/10 12:36:19;;;;;;;6.60;4.55;;;24.40;99.90;;;;;;5096974;28;20252;-84
2021/07/10 12:38:52;;;;;;;5.88;4.63;;;24.80;99.90;;;;;;5097103;28;20226;-84
2021/07/10 12:41:26;;;;;;;6.07;4.85;;;25.00;99.90;;;;;;5096549;28;20283;-83
2021/07/10 12:43:55;;;;;;;6.70;5.03;;;24.50;99.90;;;;;;5096386;28;20210;-84
2021/07/10 12:46:22;;;;;;;7.47;5.60;;;24.40;99.90;;;;;;5096596;28;20202;-83